createdAt,value
2022-08-01T00:00:54.239Z,1.63
2022-08-01T00:03:56.818Z,1.60
2022-08-01T00:06:59.506Z,1.50
2022-08-01T00:10:04.504Z,2.83
2022-08-01T00:13:07.137Z,1.52
2022-08-01T00:16:10.613Z,2.83
2022-08-01T00:19:13.570Z,3.07
2022-08-01T00:22:16.423Z,1.70
2022-08-01T00:25:19.123Z,1.92
2022-08-01T00:28:22.099Z,1.38
2022-08-01T00:31:24.688Z,1.60
2022-08-01T00:34:27.284Z,1.87
2022-08-01T00:37:30.256Z,1.98
2022-08-01T00:40:32.908Z,1.90
2022-08-01T00:43:35.904Z,1.10
2022-08-01T00:46:38.533Z,1.67
2022-08-01T00:49:43.169Z,2.40
2022-08-01T00:52:51.311Z,2.92
2022-08-01T00:55:54.614Z,1.20
2022-08-01T00:58:57.672Z,1.83
2022-08-01T01:02:01.608Z,1.95
2022-08-01T01:05:05.016Z,1.70
2022-08-01T01:08:17.776Z,2.33
2022-08-01T01:11:29.438Z,3.20
2022-08-01T01:14:45.843Z,1.48
2022-08-01T01:18:01.878Z,2.33
2022-08-01T01:21:24.788Z,1.20
2022-08-01T01:25:05.330Z,1.45
2022-08-01T01:28:46.076Z,1.40
2022-08-01T01:32:03.654Z,1.63
2022-08-01T01:35:21.030Z,1.80
2022-08-01T01:38:27.768Z,1.37
2022-08-01T01:41:31.452Z,1.38
2022-08-01T01:44:35.873Z,2.13
2022-08-01T01:47:41.047Z,1.65
2022-08-01T01:50:50.547Z,2.15
2022-08-01T01:53:55.734Z,1.63
2022-08-01T01:57:01.815Z,1.95
2022-08-01T02:00:07.023Z,2.17
2022-08-01T02:03:12.486Z,1.20
2022-08-01T02:06:17.099Z,1.75
2022-08-01T02:09:21.960Z,2.30
2022-08-01T02:12:25.523Z,1.58
2022-08-01T02:15:29.242Z,2.38
2022-08-01T02:18:33.334Z,1.50
2022-08-01T02:21:40.841Z,1.77
2022-08-01T02:24:45.988Z,3.10
2022-08-01T02:28:10.551Z,1.38
2022-08-01T02:31:18.118Z,1.90
2022-08-01T02:34:22.238Z,2.13
2022-08-01T02:37:27.658Z,1.13
2022-08-01T02:40:34.032Z,2.30
2022-08-01T02:43:43.373Z,2.58
2022-08-01T02:46:52.550Z,2.42
2022-08-01T02:49:56.641Z,2.63
2022-08-01T02:53:00.135Z,2.40
2022-08-01T02:56:05.518Z,1.90
2022-08-01T02:59:13.645Z,3.20
2022-08-01T03:02:18.418Z,2.50
2022-08-01T03:05:21.458Z,1.90
2022-08-01T03:08:26.207Z,1.70
2022-08-01T03:11:30.514Z,2.93
2022-08-01T03:14:37.427Z,1.83
2022-08-01T03:17:43.659Z,1.60
2022-08-01T03:20:47.864Z,1.92
2022-08-01T03:23:55.097Z,1.30
2022-08-01T03:26:59.670Z,1.60
2022-08-01T03:30:05.923Z,2.22
2022-08-01T03:33:08.937Z,1.60
2022-08-01T03:36:13.769Z,1.98
2022-08-01T03:39:18.653Z,2.65
2022-08-01T03:42:28.024Z,1.80
2022-08-01T03:45:37.751Z,2.13
2022-08-01T03:48:46.933Z,1.90
2022-08-01T03:51:51.121Z,1.65
2022-08-01T03:54:56.620Z,1.90
2022-08-01T03:58:00.695Z,1.63
2022-08-01T04:01:04.122Z,3.08
2022-08-01T04:04:07.052Z,1.77
2022-08-01T04:07:30.396Z,3.65
2022-08-01T04:10:33.266Z,2.50
2022-08-01T04:13:36.987Z,3.50
2022-08-01T04:16:40.173Z,1.80
2022-08-01T04:19:43.296Z,1.58
2022-08-01T04:22:46.098Z,1.88
2022-08-01T04:25:49.742Z,2.05
2022-08-01T04:28:53.679Z,2.47
2022-08-01T04:31:58.173Z,2.50
2022-08-01T04:35:03.938Z,2.17
2022-08-01T04:38:29.514Z,1.92
2022-08-01T04:41:33.801Z,2.53
2022-08-01T04:44:36.465Z,3.10
2022-08-01T04:47:40.401Z,1.90
2022-08-01T04:50:43.352Z,2.00
2022-08-01T04:53:49.024Z,3.00
2022-08-01T04:56:52.094Z,2.20
2022-08-01T04:59:57.941Z,2.00
2022-08-01T05:03:00.775Z,5.75
2022-08-01T05:06:03.785Z,3.30
2022-08-01T05:09:06.428Z,4.38
2022-08-01T05:12:10.345Z,3.75
2022-08-01T05:15:15.530Z,2.80
2022-08-01T05:18:18.262Z,3.08
2022-08-01T05:21:30.400Z,5.57
2022-08-01T05:24:34.343Z,4.75
2022-08-01T05:27:41.808Z,3.78
2022-08-01T05:30:44.840Z,4.70
2022-08-01T05:33:47.435Z,3.53
2022-08-01T05:36:52.986Z,4.78
2022-08-01T05:39:59.439Z,3.75
2022-08-01T05:43:02.016Z,2.72
2022-08-01T05:46:04.562Z,2.93
2022-08-01T05:49:07.210Z,2.92
2022-08-01T05:52:10.599Z,4.63
2022-08-01T05:55:13.188Z,2.42
2022-08-01T05:58:15.717Z,2.90
2022-08-01T06:01:19.606Z,5.90
2022-08-01T06:04:22.493Z,6.07
2022-08-01T06:07:25.094Z,6.53
2022-08-01T06:10:27.802Z,5.63
2022-08-01T06:13:30.556Z,5.38
2022-08-01T06:16:33.240Z,6.00
2022-08-01T06:19:35.788Z,4.50
2022-08-01T06:22:39.337Z,4.05
2022-08-01T06:25:44.260Z,4.80
2022-08-01T06:28:47.037Z,4.30
2022-08-01T06:31:49.584Z,5.77
2022-08-01T06:34:52.149Z,6.13
2022-08-01T06:37:55.173Z,4.10
2022-08-01T06:40:58.421Z,5.80
2022-08-01T06:44:03.388Z,6.05
2022-08-01T06:47:06.118Z,3.63
2022-08-01T06:50:10.459Z,5.90
2022-08-01T06:53:14.778Z,2.78
2022-08-01T06:56:17.723Z,4.60
2022-08-01T06:59:20.392Z,3.75
2022-08-01T07:02:23.688Z,6.30
2022-08-01T07:05:27.111Z,8.57
2022-08-01T07:08:30.242Z,8.98
2022-08-01T07:11:33.075Z,5.13
2022-08-01T07:14:35.815Z,5.88
2022-08-01T07:17:43.079Z,7.63
2022-08-01T07:20:50.350Z,8.85
2022-08-01T07:23:55.795Z,6.72
2022-08-01T07:26:58.810Z,5.72
2022-08-01T07:30:24.308Z,5.13
2022-08-01T07:33:26.975Z,5.23
2022-08-01T07:36:50.300Z,4.95
2022-08-01T07:39:52.922Z,6.20
2022-08-01T07:42:55.544Z,6.63
2022-08-01T07:45:58.070Z,6.35
2022-08-01T07:49:00.809Z,3.97
2022-08-01T07:52:04.645Z,5.80
2022-08-01T07:55:08.408Z,4.00
2022-08-01T07:58:11.044Z,4.65
2022-08-01T08:01:14.402Z,2.55
2022-08-01T08:04:17.151Z,3.53
2022-08-01T08:07:19.720Z,3.90
2022-08-01T08:10:22.771Z,3.55
2022-08-01T08:13:25.341Z,3.67
2022-08-01T08:16:28.263Z,4.18
2022-08-01T08:19:37.753Z,4.10
2022-08-01T08:22:40.761Z,3.92
2022-08-01T08:25:43.366Z,2.80
2022-08-01T08:28:46.043Z,2.78
2022-08-01T08:31:51.961Z,3.13
2022-08-01T08:34:55.378Z,2.27
2022-08-01T08:37:58.125Z,2.35
2022-08-01T08:41:00.937Z,3.33
2022-08-01T08:44:06.847Z,3.20
2022-08-01T08:47:19.773Z,4.03
2022-08-01T08:50:24.295Z,4.10
2022-08-01T08:53:34.844Z,4.35
2022-08-01T08:56:38.945Z,4.43
2022-08-01T08:59:43.827Z,4.15
2022-08-01T09:02:50.155Z,4.65
2022-08-01T09:05:52.924Z,3.70
2022-08-01T09:08:55.510Z,4.35
2022-08-01T09:11:58.384Z,5.50
2022-08-01T09:15:00.960Z,4.60
2022-08-01T09:18:03.687Z,4.15
2022-08-01T09:21:12.247Z,3.73
2022-08-01T09:24:16.726Z,5.45
2022-08-01T09:27:25.232Z,4.20
2022-08-01T09:30:27.871Z,2.85
2022-08-01T09:33:52.005Z,5.80
2022-08-01T09:36:57.671Z,2.37
2022-08-01T09:40:00.287Z,3.40
2022-08-01T09:43:14.840Z,2.95
2022-08-01T09:46:18.249Z,2.88
2022-08-01T09:49:49.793Z,2.92
2022-08-01T09:52:58.082Z,4.03
2022-08-01T09:56:12.069Z,2.40
2022-08-01T09:59:16.793Z,4.65
2022-08-01T10:02:37.050Z,3.40
2022-08-01T10:05:43.992Z,3.30
2022-08-01T10:08:52.663Z,2.80
2022-08-01T10:11:57.778Z,2.38
2022-08-01T10:15:00.704Z,3.78
2022-08-01T10:18:16.153Z,3.67
2022-08-01T10:21:56.619Z,3.03
2022-08-01T10:24:54.405Z,2.77
2022-08-01T10:28:00.100Z,3.58
2022-08-01T10:31:03.145Z,4.60
2022-08-01T10:34:18.594Z,3.95
2022-08-01T10:37:27.098Z,5.15
2022-08-01T10:40:31.498Z,5.60
2022-08-01T10:43:35.686Z,4.05
2022-08-01T10:46:42.248Z,3.10
2022-08-01T10:50:05.376Z,3.20
2022-08-01T10:53:31.150Z,4.22
2022-08-01T10:56:50.844Z,4.93
2022-08-01T11:00:01.539Z,4.47
2022-08-01T11:03:05.363Z,3.03
2022-08-01T11:06:15.906Z,3.53
2022-08-01T11:09:18.457Z,4.00
2022-08-01T11:12:24.767Z,4.13
2022-08-01T11:15:31.752Z,4.45
2022-08-01T11:18:37.526Z,3.72
2022-08-01T11:21:58.708Z,4.03
2022-08-01T11:25:04.229Z,4.65
2022-08-01T11:28:28.238Z,3.50
2022-08-01T11:31:37.096Z,3.10
2022-08-01T11:34:56.922Z,3.22
2022-08-01T11:38:29.037Z,3.22
2022-08-01T11:41:39.174Z,5.43
2022-08-01T11:44:52.442Z,3.80
2022-08-01T11:47:57.033Z,3.42
2022-08-01T11:51:02.124Z,2.72
2022-08-01T11:54:05.210Z,4.10
2022-08-01T11:57:11.010Z,3.92
2022-08-01T12:00:18.582Z,2.60
2022-08-01T12:03:33.239Z,3.17
2022-08-01T12:06:36.936Z,5.53
2022-08-01T12:09:39.568Z,2.92
2022-08-01T12:12:50.638Z,2.97
2022-08-01T12:15:56.964Z,3.43
2022-08-01T12:19:00.451Z,3.05
2022-08-01T12:22:13.149Z,2.20
2022-08-01T12:25:17.948Z,3.15
2022-08-01T12:28:20.821Z,2.85
2022-08-01T12:31:32.786Z,3.10
2022-08-01T12:34:35.640Z,4.47
2022-08-01T12:37:39.624Z,3.97
2022-08-01T12:40:45.497Z,3.67
2022-08-01T12:43:49.261Z,2.70
2022-08-01T12:46:52.723Z,4.37
2022-08-01T12:49:55.596Z,3.00
2022-08-01T12:52:59.077Z,2.85
2022-08-01T12:56:01.703Z,4.22
2022-08-01T12:59:21.398Z,3.78
2022-08-01T13:02:33.024Z,2.83
2022-08-01T13:05:45.146Z,3.00
2022-08-01T13:08:47.920Z,3.53
2022-08-01T13:12:03.762Z,4.55
2022-08-01T13:15:41.599Z,4.35
2022-08-01T13:18:50.927Z,2.70
2022-08-01T13:21:58.473Z,3.08
2022-08-01T13:25:22.578Z,3.20
2022-08-01T13:28:29.194Z,2.92
2022-08-01T13:31:35.577Z,3.33
2022-08-01T13:34:38.836Z,2.30
2022-08-01T13:37:43.192Z,2.63
2022-08-01T13:40:46.064Z,3.47
2022-08-01T13:43:57.586Z,3.20
2022-08-01T13:47:14.953Z,3.22
2022-08-01T13:50:19.763Z,3.27
2022-08-01T13:53:22.797Z,3.70
2022-08-01T13:56:25.909Z,2.72
2022-08-01T13:59:28.823Z,3.60
2022-08-01T14:02:31.352Z,3.38
2022-08-01T14:05:34.063Z,2.97
2022-08-01T14:08:36.603Z,3.70
2022-08-01T14:11:39.911Z,4.10
2022-08-01T14:14:48.621Z,2.47
2022-08-01T14:17:51.806Z,3.22
2022-08-01T14:20:54.706Z,2.67
2022-08-01T14:24:01.869Z,2.95
2022-08-01T14:27:04.530Z,3.03
2022-08-01T14:30:08.328Z,4.00
2022-08-01T14:33:14.037Z,3.72
2022-08-01T14:36:29.273Z,2.53
2022-08-01T14:39:34.149Z,3.25
2022-08-01T14:42:39.386Z,2.55
2022-08-01T14:45:42.018Z,2.58
2022-08-01T14:48:44.821Z,2.75
2022-08-01T14:51:47.445Z,2.23
2022-08-01T14:54:50.031Z,2.47
2022-08-01T14:57:52.651Z,3.20
2022-08-01T15:00:58.854Z,2.90
2022-08-01T15:04:01.933Z,3.05
2022-08-01T15:07:07.395Z,3.13
2022-08-01T15:10:12.035Z,2.42
2022-08-01T15:13:14.761Z,3.17
2022-08-01T15:16:17.594Z,4.20
2022-08-01T15:19:20.200Z,2.75
2022-08-01T15:22:24.681Z,2.57
2022-08-01T15:25:41.099Z,2.70
2022-08-01T15:28:44.821Z,3.25
2022-08-01T15:31:47.461Z,2.97
2022-08-01T15:34:50.167Z,2.55
2022-08-01T15:37:52.780Z,2.60
2022-08-01T15:40:55.407Z,2.25
2022-08-01T15:43:58.066Z,2.20
2022-08-01T15:47:01.420Z,2.10
2022-08-01T15:50:05.681Z,3.60
2022-08-01T15:53:08.540Z,3.87
2022-08-01T15:56:11.192Z,2.72
2022-08-01T15:59:13.979Z,3.28
2022-08-01T16:02:16.640Z,2.85
2022-08-01T16:05:20.396Z,2.50
2022-08-01T16:08:23.243Z,3.33
2022-08-01T16:11:27.794Z,2.60
2022-08-01T16:14:30.497Z,2.63
2022-08-01T16:17:33.205Z,2.38
2022-08-01T16:20:40.184Z,2.25
2022-08-01T16:23:46.639Z,3.47
2022-08-01T16:26:49.270Z,2.45
2022-08-01T16:29:51.875Z,2.92
2022-08-01T16:32:57.240Z,2.70
2022-08-01T16:36:02.952Z,2.97
2022-08-01T16:39:07.642Z,2.27
2022-08-01T16:42:10.903Z,2.72
2022-08-01T16:45:15.673Z,2.75
2022-08-01T16:48:19.806Z,4.03
2022-08-01T16:51:22.584Z,3.05
2022-08-01T16:54:26.417Z,2.63
2022-08-01T16:57:33.088Z,3.13
2022-08-01T17:00:46.282Z,3.40
2022-08-01T17:04:01.545Z,2.53
2022-08-01T17:07:04.914Z,2.55
2022-08-01T17:10:08.980Z,3.27
2022-08-01T17:13:11.805Z,3.13
2022-08-01T17:16:14.802Z,3.83
2022-08-01T17:19:17.403Z,4.25
2022-08-01T17:22:20.251Z,3.03
2022-08-01T17:25:24.614Z,4.10
2022-08-01T17:28:29.169Z,4.57
2022-08-01T17:31:31.778Z,4.93
2022-08-01T17:34:34.603Z,4.20
2022-08-01T17:37:37.199Z,4.30
2022-08-01T17:40:41.166Z,4.07
2022-08-01T17:43:43.953Z,4.78
2022-08-01T17:46:46.717Z,3.35
2022-08-01T17:49:57.033Z,3.45
2022-08-01T17:52:59.751Z,3.80
2022-08-01T17:56:05.834Z,4.47
2022-08-01T17:59:08.680Z,4.35
2022-08-01T18:02:11.696Z,4.18
2022-08-01T18:05:15.483Z,3.88
2022-08-01T18:08:18.767Z,3.95
2022-08-01T18:11:21.735Z,4.27
2022-08-01T18:14:40.217Z,5.38
2022-08-01T18:17:43.962Z,4.18
2022-08-01T18:20:47.960Z,4.72
2022-08-01T18:23:51.878Z,4.20
2022-08-01T18:26:55.244Z,4.10
2022-08-01T18:29:58.386Z,4.03
2022-08-01T18:33:00.954Z,4.45
2022-08-01T18:36:05.848Z,4.03
2022-08-01T18:39:10.637Z,4.07
2022-08-01T18:42:13.325Z,4.20
2022-08-01T18:45:16.062Z,4.78
2022-08-01T18:48:20.291Z,4.30
2022-08-01T18:51:22.928Z,4.40
2022-08-01T18:54:26.654Z,5.82
2022-08-01T18:57:29.301Z,5.83
2022-08-01T19:00:32.105Z,4.72
2022-08-01T19:03:37.613Z,4.38
2022-08-01T19:06:43.600Z,4.82
2022-08-01T19:09:50.848Z,4.75
2022-08-01T19:12:53.473Z,4.40
2022-08-01T19:15:57.922Z,5.55
2022-08-01T19:19:04.603Z,4.82
2022-08-01T19:22:07.403Z,5.32
2022-08-01T19:25:10.333Z,5.88
2022-08-01T19:28:17.376Z,5.13
2022-08-01T19:31:26.962Z,5.03
2022-08-01T19:34:29.570Z,5.30
2022-08-01T19:37:34.737Z,4.43
2022-08-01T19:40:38.576Z,4.38
2022-08-01T19:43:46.182Z,4.63
2022-08-01T19:46:50.687Z,4.70
2022-08-01T19:49:53.619Z,4.97
2022-08-01T19:52:57.689Z,5.30
2022-08-01T19:56:01.383Z,5.28
2022-08-01T19:59:05.058Z,4.40
2022-08-01T20:02:08.087Z,4.80
2022-08-01T20:05:10.756Z,4.80
2022-08-01T20:08:14.850Z,4.35
2022-08-01T20:11:21.709Z,4.82
2022-08-01T20:14:26.616Z,5.50
2022-08-01T20:17:29.193Z,5.57
2022-08-01T20:20:36.882Z,6.05
2022-08-01T20:23:41.531Z,4.15
2022-08-01T20:26:48.036Z,4.22
2022-08-01T20:29:51.873Z,4.50
2022-08-01T20:32:58.071Z,5.22
2022-08-01T20:36:04.618Z,5.03
2022-08-01T20:39:15.208Z,5.88
2022-08-01T20:42:18.281Z,4.85
2022-08-01T20:45:22.319Z,4.63
2022-08-01T20:48:29.641Z,4.88
2022-08-01T20:51:32.320Z,5.15
2022-08-01T20:54:34.894Z,5.22
2022-08-01T20:57:40.503Z,4.30
2022-08-01T21:00:45.442Z,5.40
2022-08-01T21:04:11.148Z,5.13
2022-08-01T21:07:26.837Z,5.25
2022-08-01T21:10:31.713Z,5.28
2022-08-01T21:13:43.205Z,5.05
2022-08-01T21:16:49.934Z,6.33
2022-08-01T21:19:54.920Z,4.85
2022-08-01T21:23:39.161Z,5.75
2022-08-01T21:26:43.783Z,4.93
2022-08-01T21:29:49.368Z,5.95
2022-08-01T21:32:52.417Z,4.33
2022-08-01T21:36:04.144Z,5.28
2022-08-01T21:39:08.870Z,4.57
2022-08-01T21:42:18.324Z,5.30
2022-08-01T21:45:27.331Z,5.20
2022-08-01T21:48:32.257Z,5.70
2022-08-01T21:51:51.989Z,5.28
2022-08-01T21:55:22.695Z,5.57
2022-08-01T21:58:52.440Z,6.25
2022-08-01T22:02:08.999Z,5.65
2022-08-01T22:05:13.800Z,5.40
2022-08-01T22:08:21.719Z,5.00
2022-08-01T22:11:31.472Z,4.70
2022-08-01T22:14:40.735Z,5.45
2022-08-01T22:17:44.979Z,4.90
2022-08-01T22:20:48.302Z,4.83
2022-08-01T22:23:52.375Z,6.45
2022-08-01T22:26:56.141Z,5.03
2022-08-01T22:30:02.947Z,4.75
2022-08-01T22:33:16.476Z,5.35
2022-08-01T22:36:20.657Z,4.43
2022-08-01T22:39:24.347Z,4.40
2022-08-01T22:42:31.614Z,4.65
2022-08-01T22:45:47.552Z,4.75
2022-08-01T22:48:59.797Z,4.15
2022-08-01T22:52:10.684Z,4.87
2022-08-01T22:55:20.952Z,5.40
2022-08-01T22:58:26.607Z,6.45
2022-08-01T23:01:32.564Z,5.82
2022-08-01T23:04:43.000Z,7.07
2022-08-01T23:07:52.325Z,4.40
2022-08-01T23:10:55.737Z,4.82
2022-08-01T23:14:00.524Z,5.35
2022-08-01T23:17:27.711Z,5.18
2022-08-01T23:20:26.544Z,4.70
2022-08-01T23:23:31.867Z,4.40
2022-08-01T23:26:37.287Z,3.95
2022-08-01T23:29:40.028Z,4.50
2022-08-01T23:32:42.612Z,4.32
2022-08-01T23:35:45.341Z,4.63
2022-08-01T23:38:48.166Z,4.57
2022-08-01T23:41:57.597Z,5.47
2022-08-01T23:45:01.780Z,4.65
2022-08-01T23:48:07.151Z,4.85
2022-08-01T23:51:17.297Z,4.97
2022-08-01T23:54:26.993Z,4.57
2022-08-01T23:57:29.796Z,4.28
